Time;durP1;ratioP1;P1;durP2;ratioP2;P2;SDS_P1;SDS_P2;PMS_P1;PMS_P2;Temp;Humidity;BMP_temperature;BMP_pressure;BME280_temperature;BME280_humidity;BME280_pressure;Samples;Min_cycle;Max_cycle;Signal;HPM_P1;HPM_P2
2022/10/14 00:01:14;;;;;;;55.85;14.15;;;;;;;;;;5022628;28;20462;-77
2022/10/14 00:03:41;;;;;;;72.60;14.35;;;;;;;;;;5041055;28;20050;-76
2022/10/14 00:06:09;;;;;;;32.70;13.60;;;;;;;;;;5041231;28;20532;-75
2022/10/14 00:08:35;;;;;;;45.83;13.52;;;;;;;;;;5040549;28;20049;-75
2022/10/14 00:11:06;;;;;;;34.55;13.85;;;;;;;;;;5038502;28;20053;-75
2022/10/14 00:13:33;;;;;;;41.03;15.23;;;;;;;;;;5040499;28;20064;-75
2022/10/14 00:16:00;;;;;;;40.13;13.30;;;;;;;;;;5040959;28;20053;-75
2022/10/14 00:18:26;;;;;;;26.85;13.73;;;;;;;;;;5041250;28;20054;-75
2022/10/14 00:20:53;;;;;;;29.60;12.57;;;;;;;;;;5041258;28;20054;-75
2022/10/14 00:23:20;;;;;;;37.20;13.57;;;;;;;;;;5037860;28;20389;-74
2022/10/14 00:25:46;;;;;;;26.85;13.02;;;;;;;;;;5040251;28;20061;-75
2022/10/14 00:28:12;;;;;;;38.80;13.80;;;;;;;;;;5039856;28;20045;-75
2022/10/14 00:30:38;;;;;;;36.63;13.48;;;;;;;;;;5041200;28;20532;-75
2022/10/14 00:33:05;;;;;;;38.55;15.05;;;;;;;;;;5039371;28;20141;-74
2022/10/14 00:35:31;;;;;;;49.03;14.73;;;;;;;;;;5039803;28;20045;-77
2022/10/14 00:37:58;;;;;;;44.25;13.65;;;;;;;;;;5023283;28;20053;-74
2022/10/14 00:40:25;;;;;;;41.72;13.82;;;;;;;;;;5039986;28;20724;-76
2022/10/14 00:42:51;;;;;;;31.58;14.13;;;;;;;;;;5041515;28;20093;-75
2022/10/14 00:45:22;;;;;;;43.20;15.57;;;;;;;;;;5040775;28;20494;-76
2022/10/14 00:47:50;;;;;;;34.53;15.48;;;;;;;;;;5040082;28;20159;-76
2022/10/14 00:50:16;;;;;;;32.72;15.50;;;;;;;;;;5038688;28;20061;-75
2022/10/14 00:52:43;;;;;;;31.63;15.13;;;;;;;;;;5022611;28;20067;-76
2022/10/14 00:55:12;;;;;;;34.50;14.13;;;;;;;;;;5041180;28;20045;-74
2022/10/14 00:57:39;;;;;;;32.40;13.90;;;;;;;;;;5041542;28;20135;-76
2022/10/14 01:00:07;;;;;;;51.15;17.27;;;;;;;;;;5038972;28;20049;-75
2022/10/14 01:02:33;;;;;;;46.80;15.05;;;;;;;;;;5039314;28;20111;-75
2022/10/14 01:05:00;;;;;;;50.10;15.23;;;;;;;;;;5040164;28;20049;-74
2022/10/14 01:07:30;;;;;;;28.25;14.00;;;;;;;;;;5040417;28;21104;-75
2022/10/14 01:10:07;;;;;;;28.08;13.07;;;;;;;;;;5039760;28;20083;-75
2022/10/14 01:12:42;;;;;;;26.67;14.15;;;;;;;;;;5024019;28;20057;-75
2022/10/14 01:15:16;;;;;;;27.35;13.45;;;;;;;;;;5025145;28;20061;-76
2022/10/14 01:17:48;;;;;;;24.95;14.18;;;;;;;;;;5039367;28;20058;-76
2022/10/14 01:20:18;;;;;;;29.60;13.23;;;;;;;;;;5040361;28;20053;-75
2022/10/14 01:23:03;;;;;;;26.92;12.00;;;;;;;;;;5036969;28;20054;-75
2022/10/14 01:25:33;;;;;;;21.73;12.35;;;;;;;;;;5038909;28;20089;-75
2022/10/14 01:28:19;;;;;;;26.15;12.77;;;;;;;;;;5039067;28;20065;-75
2022/10/14 01:30:48;;;;;;;27.30;12.75;;;;;;;;;;5037678;28;20046;-75
2022/10/14 01:33:27;;;;;;;26.55;12.77;;;;;;;;;;5019868;28;20057;-75
2022/10/14 01:36:09;;;;;;;27.75;12.95;;;;;;;;;;5039380;28;20474;-75
2022/10/14 01:38:37;;;;;;;26.15;14.55;;;;;;;;;;5037914;28;20054;-75
2022/10/14 01:41:10;;;;;;;19.55;12.35;;;;;;;;;;5039415;28;20065;-75
2022/10/14 01:43:36;;;;;;;22.73;13.10;;;;;;;;;;5039241;28;20045;-75
2022/10/14 01:46:05;;;;;;;24.65;13.95;;;;;;;;;;5039416;28;20053;-75
2022/10/14 01:48:32;;;;;;;22.45;12.23;;;;;;;;;;5021101;28;20057;-75
2022/10/14 01:51:00;;;;;;;33.22;13.73;;;;;;;;;;5039088;28;20543;-74
2022/10/14 01:53:32;;;;;;;23.02;13.02;;;;;;;;;;5038436;28;20057;-75
2022/10/14 01:56:00;;;;;;;29.00;12.60;;;;;;;;;;5038532;28;20052;-75
2022/10/14 01:58:27;;;;;;;30.75;14.27;;;;;;;;;;5036460;28;20053;-75
2022/10/14 02:00:54;;;;;;;29.27;13.55;;;;;;;;;;5032731;28;20433;-75
2022/10/14 02:03:21;;;;;;;39.80;13.65;;;;;;;;;;5038321;28;20062;-75
2022/10/14 02:05:50;;;;;;;27.92;14.82;;;;;;;;;;5040659;28;20076;-75
2022/10/14 02:08:24;;;;;;;37.53;13.50;;;;;;;;;;5024357;28;20254;-75
2022/10/14 02:10:51;;;;;;;26.95;13.45;;;;;;;;;;5041431;28;20060;-76
2022/10/14 02:13:27;;;;;;;25.20;13.52;;;;;;;;;;5042030;28;20060;-75
2022/10/14 02:16:05;;;;;;;29.42;14.45;;;;;;;;;;5038893;28;20155;-75
2022/10/14 02:18:40;;;;;;;32.20;15.10;;;;;;;;;;5021797;28;20053;-75
2022/10/14 02:21:26;;;;;;;32.45;15.93;;;;;;;;;;5024389;28;20108;-75
2022/10/14 02:23:57;;;;;;;31.55;15.45;;;;;;;;;;5037511;28;20065;-75
2022/10/14 02:26:24;;;;;;;37.80;16.65;;;;;;;;;;5042585;28;20072;-75
2022/10/14 02:28:52;;;;;;;26.63;14.55;;;;;;;;;;5043037;28;20061;-75
2022/10/14 02:31:20;;;;;;;26.60;14.88;;;;;;;;;;5042532;28;20085;-75
2022/10/14 02:33:49;;;;;;;27.92;14.77;;;;;;;;;;5039803;28;20498;-75
2022/10/14 02:36:16;;;;;;;30.55;15.30;;;;;;;;;;5047794;28;20058;-75
2022/10/14 02:38:45;;;;;;;41.80;15.65;;;;;;;;;;5029197;28;20053;-75
2022/10/14 02:41:13;;;;;;;31.15;15.93;;;;;;;;;;5041886;28;20063;-75
2022/10/14 02:43:39;;;;;;;30.52;16.00;;;;;;;;;;5024244;28;20125;-75
2022/10/14 02:46:06;;;;;;;32.58;16.48;;;;;;;;;;5038917;28;20434;-75
2022/10/14 02:48:32;;;;;;;33.13;17.02;;;;;;;;;;5041755;28;20061;-77
2022/10/14 02:50:58;;;;;;;37.20;16.90;;;;;;;;;;5042782;28;20469;-76
2022/10/14 02:53:25;;;;;;;35.10;16.80;;;;;;;;;;5041044;28;20057;-77
2022/10/14 02:55:51;;;;;;;36.72;17.95;;;;;;;;;;5042271;28;20478;-76
2022/10/14 02:58:17;;;;;;;34.20;17.30;;;;;;;;;;5040785;28;20572;-76
2022/10/14 03:00:44;;;;;;;33.60;17.13;;;;;;;;;;5041066;28;20058;-75
2022/10/14 03:03:10;;;;;;;32.35;18.42;;;;;;;;;;5039727;28;20105;-76
2022/10/14 03:05:36;;;;;;;31.55;17.25;;;;;;;;;;5041572;28;20085;-76
2022/10/14 03:08:03;;;;;;;30.13;16.75;;;;;;;;;;5040474;28;20059;-76
2022/10/14 03:10:29;;;;;;;36.17;19.02;;;;;;;;;;5042069;28;20061;-76
2022/10/14 03:12:55;;;;;;;34.30;18.13;;;;;;;;;;5039535;28;20056;-76
2022/10/14 03:15:22;;;;;;;31.98;17.45;;;;;;;;;;5023951;28;20061;-76
2022/10/14 03:17:48;;;;;;;33.55;18.65;;;;;;;;;;5024327;28;20053;-76
2022/10/14 03:20:15;;;;;;;34.28;19.42;;;;;;;;;;5040999;28;20053;-75
2022/10/14 03:22:41;;;;;;;36.72;19.65;;;;;;;;;;5042277;28;20053;-76
2022/10/14 03:25:08;;;;;;;32.92;19.02;;;;;;;;;;5047576;28;20064;-76
2022/10/14 03:27:34;;;;;;;35.85;19.15;;;;;;;;;;5057586;28;20053;-77
2022/10/14 03:30:00;;;;;;;34.22;19.08;;;;;;;;;;5041543;28;20049;-77
2022/10/14 03:32:27;;;;;;;34.55;18.85;;;;;;;;;;5042021;28;20713;-76
2022/10/14 03:34:53;;;;;;;41.75;20.30;;;;;;;;;;5042306;28;20522;-76
2022/10/14 03:37:20;;;;;;;36.83;20.05;;;;;;;;;;5038708;28;20049;-76
2022/10/14 03:39:46;;;;;;;38.42;20.75;;;;;;;;;;5041372;28;20061;-76
2022/10/14 03:42:12;;;;;;;41.13;19.42;;;;;;;;;;5040769;28;20057;-77
2022/10/14 03:44:39;;;;;;;35.13;19.80;;;;;;;;;;5041565;28;20054;-75
2022/10/14 03:47:05;;;;;;;39.92;20.73;;;;;;;;;;5040737;28;20049;-76
2022/10/14 03:49:31;;;;;;;39.17;19.90;;;;;;;;;;5040651;28;20061;-75
2022/10/14 03:51:58;;;;;;;42.80;22.05;;;;;;;;;;5041039;28;20054;-76
2022/10/14 03:54:24;;;;;;;48.83;22.02;;;;;;;;;;5039253;28;20050;-76
2022/10/14 03:56:50;;;;;;;43.13;22.35;;;;;;;;;;5039898;28;20446;-76
2022/10/14 03:59:17;;;;;;;48.20;22.30;;;;;;;;;;5039346;28;20106;-76
2022/10/14 04:01:43;;;;;;;46.40;22.17;;;;;;;;;;5023513;28;20089;-77
2022/10/14 04:04:10;;;;;;;47.90;22.67;;;;;;;;;;5041078;28;20185;-76
2022/10/14 04:06:36;;;;;;;41.75;21.55;;;;;;;;;;5041628;28;20534;-77
2022/10/14 04:09:03;;;;;;;41.47;22.40;;;;;;;;;;5039878;28;20491;-78
2022/10/14 04:11:29;;;;;;;44.08;21.52;;;;;;;;;;5038791;28;20053;-76
2022/10/14 04:13:56;;;;;;;48.00;23.08;;;;;;;;;;5041380;28;20053;-77
2022/10/14 04:16:23;;;;;;;48.15;24.13;;;;;;;;;;5038881;28;20506;-76
2022/10/14 04:18:50;;;;;;;53.17;24.65;;;;;;;;;;5040391;28;20049;-77
2022/10/14 04:21:16;;;;;;;52.55;23.85;;;;;;;;;;5020238;28;20062;-77
2022/10/14 04:23:42;;;;;;;46.78;23.63;;;;;;;;;;5031826;28;20140;-76
2022/10/14 04:26:09;;;;;;;48.95;23.73;;;;;;;;;;5023714;28;20463;-76
2022/10/14 04:28:35;;;;;;;50.40;23.00;;;;;;;;;;5040597;28;20088;-77
2022/10/14 04:31:02;;;;;;;46.00;23.83;;;;;;;;;;5038636;28;20135;-75
2022/10/14 04:33:29;;;;;;;43.65;22.13;;;;;;;;;;5025401;28;20053;-76
2022/10/14 04:35:56;;;;;;;49.55;23.90;;;;;;;;;;5039827;28;20473;-76
2022/10/14 04:38:22;;;;;;;57.63;23.58;;;;;;;;;;5042262;28;20709;-76
2022/10/14 04:40:49;;;;;;;51.80;24.17;;;;;;;;;;5042737;28;20059;-77
2022/10/14 04:43:15;;;;;;;48.35;23.23;;;;;;;;;;5040695;28;20159;-77
2022/10/14 04:45:41;;;;;;;55.47;24.50;;;;;;;;;;5022924;28;20559;-77
2022/10/14 04:48:08;;;;;;;54.30;24.33;;;;;;;;;;5040014;28;20062;-76
2022/10/14 04:50:34;;;;;;;52.00;24.00;;;;;;;;;;5023038;28;20607;-77
2022/10/14 04:53:01;;;;;;;57.25;25.05;;;;;;;;;;5040698;28;20053;-75
2022/10/14 04:55:27;;;;;;;57.08;24.48;;;;;;;;;;5040512;28;20415;-74
2022/10/14 04:57:53;;;;;;;54.95;24.00;;;;;;;;;;5040002;28;20053;-77
2022/10/14 05:00:20;;;;;;;48.70;23.92;;;;;;;;;;5036882;28;20140;-76
2022/10/14 05:02:46;;;;;;;56.92;23.98;;;;;;;;;;5036764;28;20395;-77
2022/10/14 05:05:13;;;;;;;58.85;25.08;;;;;;;;;;5037998;28;20522;-78
2022/10/14 05:07:40;;;;;;;52.58;23.55;;;;;;;;;;5040587;28;20326;-77
2022/10/14 05:10:08;;;;;;;54.33;25.13;;;;;;;;;;5036316;28;20502;-77
2022/10/14 05:12:35;;;;;;;64.05;25.42;;;;;;;;;;5039552;28;20053;-77
2022/10/14 05:15:02;;;;;;;63.03;27.17;;;;;;;;;;5038440;28;21049;-76
2022/10/14 05:17:28;;;;;;;58.13;26.08;;;;;;;;;;5036670;28;20057;-76
2022/10/14 05:19:54;;;;;;;57.08;26.60;;;;;;;;;;5038729;28;20561;-76
2022/10/14 05:22:21;;;;;;;56.80;26.10;;;;;;;;;;5040293;28;20565;-76
2022/10/14 05:24:47;;;;;;;52.20;23.70;;;;;;;;;;5038703;28;20841;-76
2022/10/14 05:27:14;;;;;;;73.30;27.05;;;;;;;;;;5039739;28;20054;-75
2022/10/14 05:29:40;;;;;;;63.08;25.90;;;;;;;;;;5039622;28;20061;-75
2022/10/14 05:32:07;;;;;;;58.28;27.17;;;;;;;;;;5039609;28;20486;-75
2022/10/14 05:34:34;;;;;;;66.55;26.05;;;;;;;;;;5039168;28;20136;-75
2022/10/14 05:37:01;;;;;;;70.75;27.58;;;;;;;;;;5039602;28;20189;-75
2022/10/14 05:39:27;;;;;;;63.75;26.42;;;;;;;;;;5037324;28;20486;-75
2022/10/14 05:41:53;;;;;;;64.18;27.27;;;;;;;;;;5042674;28;20045;-75
2022/10/14 05:44:20;;;;;;;73.38;29.00;;;;;;;;;;5043799;28;20081;-75
2022/10/14 05:46:46;;;;;;;75.70;27.92;;;;;;;;;;5026797;28;20060;-75
2022/10/14 05:49:13;;;;;;;61.97;27.10;;;;;;;;;;5025565;28;20050;-74
2022/10/14 05:51:39;;;;;;;72.38;26.73;;;;;;;;;;5045832;28;20057;-76
2022/10/14 05:54:05;;;;;;;63.90;27.67;;;;;;;;;;5042909;28;20049;-76
2022/10/14 05:56:32;;;;;;;68.38;26.40;;;;;;;;;;5048501;28;20056;-75
2022/10/14 05:58:58;;;;;;;70.57;28.50;;;;;;;;;;5041357;28;20049;-74
2022/10/14 06:01:25;;;;;;;62.55;27.67;;;;;;;;;;5022997;28;20577;-74
2022/10/14 06:03:51;;;;;;;63.28;25.67;;;;;;;;;;5042605;28;20091;-74
2022/10/14 06:06:18;;;;;;;65.93;27.23;;;;;;;;;;5026011;28;20057;-74
2022/10/14 06:08:45;;;;;;;68.53;26.42;;;;;;;;;;5048216;28;20096;-75
2022/10/14 06:11:12;;;;;;;73.72;27.65;;;;;;;;;;5050781;28;20061;-75
2022/10/14 06:13:38;;;;;;;73.72;27.48;;;;;;;;;;5031056;28;20681;-74
2022/10/14 06:16:08;;;;;;;58.85;22.13;;;;;;;;;;5060034;28;20053;-74
2022/10/14 06:18:35;;;;;;;69.38;24.02;;;;;;;;;;5041022;28;20060;-74
2022/10/14 06:21:02;;;;;;;75.82;27.00;;;;;;;;;;5042337;28;20533;-74
2022/10/14 06:23:28;;;;;;;57.92;23.55;;;;;;;;;;5041269;28;20052;-77
2022/10/14 06:25:55;;;;;;;60.70;23.38;;;;;;;;;;5042761;28;20060;-74
2022/10/14 06:28:21;;;;;;;56.90;22.75;;;;;;;;;;5044190;28;20049;-77
2022/10/14 06:30:51;;;;;;;75.07;24.02;;;;;;;;;;5041030;28;20061;-76
2022/10/14 06:33:17;;;;;;;61.65;22.42;;;;;;;;;;5040221;28;20140;-75
2022/10/14 06:35:44;;;;;;;60.38;21.40;;;;;;;;;;5040432;28;20046;-76
2022/10/14 06:38:10;;;;;;;50.65;20.50;;;;;;;;;;5040761;28;20058;-78
2022/10/14 06:40:36;;;;;;;45.38;19.38;;;;;;;;;;5043698;28;20053;-75
2022/10/14 06:43:03;;;;;;;55.30;20.88;;;;;;;;;;5043871;28;20064;-73
2022/10/14 06:45:29;;;;;;;44.67;19.67;;;;;;;;;;5055735;28;20061;-74
2022/10/14 06:47:56;;;;;;;45.88;19.02;;;;;;;;;;5023806;28;20061;-76
2022/10/14 06:50:22;;;;;;;44.28;18.30;;;;;;;;;;5035251;28;20540;-75
2022/10/14 06:52:49;;;;;;;40.22;17.35;;;;;;;;;;5025791;28;20615;-75
2022/10/14 06:55:15;;;;;;;37.15;17.35;;;;;;;;;;5044661;28;20056;-75
2022/10/14 06:57:42;;;;;;;40.38;18.08;;;;;;;;;;5035980;28;20049;-75
2022/10/14 07:00:09;;;;;;;40.20;18.95;;;;;;;;;;5039046;28;20136;-75
2022/10/14 07:02:38;;;;;;;39.25;17.90;;;;;;;;;;5037524;28;20061;-75
2022/10/14 07:05:05;;;;;;;43.40;17.38;;;;;;;;;;5039496;28;20092;-75
2022/10/14 07:07:31;;;;;;;42.22;18.33;;;;;;;;;;5038293;28;20057;-74
2022/10/14 07:09:57;;;;;;;37.97;16.92;;;;;;;;;;5040863;28;20144;-74
2022/10/14 07:12:24;;;;;;;25.10;12.50;;;;;;;;;;5044312;28;20053;-62
2022/10/14 07:14:50;;;;;;;30.27;14.00;;;;;;;;;;5055780;28;20137;-74
2022/10/14 07:17:17;;;;;;;30.17;14.48;;;;;;;;;;5044922;28;20634;-74
2022/10/14 07:19:43;;;;;;;22.63;13.43;;;;;;;;;;5058554;28;20057;-74
2022/10/14 07:22:10;;;;;;;26.80;14.85;;;;;;;;;;5037099;28;20784;-76
2022/10/14 07:24:36;;;;;;;25.23;14.00;;;;;;;;;;5058571;28;20056;-78
2022/10/14 07:27:02;;;;;;;22.95;14.05;;;;;;;;;;5024417;28;20061;-78
2022/10/14 07:29:34;;;;;;;31.60;15.18;;;;;;;;;;5055866;28;20485;-78
2022/10/14 07:32:00;;;;;;;26.65;13.77;;;;;;;;;;5040167;28;20049;-78
2022/10/14 07:34:26;;;;;;;27.33;14.02;;;;;;;;;;5042301;28;20050;-78
2022/10/14 07:36:53;;;;;;;32.20;15.43;;;;;;;;;;5040869;28;20056;-78
2022/10/14 07:39:20;;;;;;;25.42;13.68;;;;;;;;;;5039645;28;20061;-78
2022/10/14 07:41:47;;;;;;;26.50;14.00;;;;;;;;;;5038079;28;20060;-77
2022/10/14 07:44:15;;;;;;;24.95;13.77;;;;;;;;;;5046386;28;20060;-78
2022/10/14 07:46:43;;;;;;;22.10;13.18;;;;;;;;;;5045131;28;20740;-78
2022/10/14 07:49:12;;;;;;;22.25;12.57;;;;;;;;;;5045328;28;20053;-78
2022/10/14 07:51:39;;;;;;;25.35;12.70;;;;;;;;;;5048144;28;20053;-78
2022/10/14 07:54:09;;;;;;;29.35;14.35;;;;;;;;;;5037239;28;20059;-78
2022/10/14 07:56:37;;;;;;;28.40;14.00;;;;;;;;;;5036623;28;20401;-78
2022/10/14 07:59:04;;;;;;;26.13;13.38;;;;;;;;;;5053381;28;20061;-77
2022/10/14 08:01:30;;;;;;;25.15;12.95;;;;;;;;;;5034596;28;20049;-77
2022/10/14 08:03:57;;;;;;;28.27;13.38;;;;;;;;;;5040273;28;20176;-76
2022/10/14 08:06:23;;;;;;;22.20;12.85;;;;;;;;;;5040554;28;20579;-76
2022/10/14 08:08:50;;;;;;;18.25;9.32;;;;;;;;;;5048477;28;20111;-63
2022/10/14 08:11:20;;;;;;;23.92;12.85;;;;;;;;;;5037895;28;20499;-76
2022/10/14 08:13:47;;;;;;;22.88;13.63;;;;;;;;;;5039577;28;20329;-75
2022/10/14 08:16:20;;;;;;;24.65;13.82;;;;;;;;;;5039037;28;20888;-75
2022/10/14 08:18:46;;;;;;;23.80;12.98;;;;;;;;;;5040321;28;20435;-75
2022/10/14 08:21:13;;;;;;;31.20;14.93;;;;;;;;;;5048454;28;20050;-74
2022/10/14 08:23:40;;;;;;;23.13;13.25;;;;;;;;;;5034953;28;20236;-74
2022/10/14 08:26:21;;;;;;;26.80;13.75;;;;;;;;;;5033184;28;20048;-73
2022/10/14 08:28:48;;;;;;;28.13;14.50;;;;;;;;;;5048626;28;20053;-74
2022/10/14 08:31:15;;;;;;;26.33;12.82;;;;;;;;;;5036426;28;20197;-63
2022/10/14 08:33:41;;;;;;;32.63;15.55;;;;;;;;;;5040319;28;20061;-74
2022/10/14 08:36:08;;;;;;;29.65;15.02;;;;;;;;;;5038256;28;20112;-75
2022/10/14 08:38:34;;;;;;;42.25;18.42;;;;;;;;;;5023488;28;20057;-73
2022/10/14 08:41:16;;;;;;;39.10;16.90;;;;;;;;;;5039919;28;20054;-75
2022/10/14 08:43:58;;;;;;;28.55;14.98;;;;;;;;;;5043395;28;20180;-74
2022/10/14 08:46:44;;;;;;;33.63;16.67;;;;;;;;;;5035852;28;20037;-75
2022/10/14 08:49:29;;;;;;;44.47;18.58;;;;;;;;;;5021810;28;20473;-76
2022/10/14 08:51:59;;;;;;;42.20;18.02;;;;;;;;;;5031824;28;20490;-75
2022/10/14 08:54:29;;;;;;;43.38;19.00;;;;;;;;;;5038226;28;20509;-76
2022/10/14 08:56:56;;;;;;;45.55;19.77;;;;;;;;;;5030972;28;20127;-75
2022/10/14 08:59:24;;;;;;;45.78;20.08;;;;;;;;;;5034219;28;20053;-74
2022/10/14 09:01:57;;;;;;;42.92;19.98;;;;;;;;;;5037287;28;20065;-74
2022/10/14 09:04:24;;;;;;;39.92;18.60;;;;;;;;;;5032575;28;20642;-75
2022/10/14 09:06:50;;;;;;;45.00;21.60;;;;;;;;;;5031524;28;20081;-76
2022/10/14 09:09:25;;;;;;;40.88;20.08;;;;;;;;;;5031991;28;20551;-75
2022/10/14 09:11:57;;;;;;;46.95;20.25;;;;;;;;;;5032571;28;20080;-73
2022/10/14 09:14:26;;;;;;;40.58;20.83;;;;;;;;;;5021237;28;20060;-73
2022/10/14 09:17:00;;;;;;;47.72;20.33;;;;;;;;;;5038702;28;20069;-74
2022/10/14 09:19:33;;;;;;;33.35;17.27;;;;;;;;;;5034186;28;20050;-75
2022/10/14 09:22:00;;;;;;;39.03;19.05;;;;;;;;;;5038811;28;20410;-74
2022/10/14 09:24:26;;;;;;;38.05;18.65;;;;;;;;;;5025172;28;20136;-74
2022/10/14 09:26:58;;;;;;;39.38;18.83;;;;;;;;;;5028861;28;20503;-74
2022/10/14 09:29:26;;;;;;;33.42;17.00;;;;;;;;;;5030987;28;20050;-73
2022/10/14 09:31:55;;;;;;;33.80;16.90;;;;;;;;;;5034155;28;20052;-74
2022/10/14 09:34:29;;;;;;;37.53;17.85;;;;;;;;;;5031255;28;20478;-74
2022/10/14 09:36:57;;;;;;;31.08;17.05;;;;;;;;;;5023169;28;20053;-75
2022/10/14 09:39:24;;;;;;;33.13;16.75;;;;;;;;;;5039410;28;20352;-74
2022/10/14 09:41:52;;;;;;;32.20;17.05;;;;;;;;;;5039673;28;20541;-74
2022/10/14 09:44:24;;;;;;;33.72;16.65;;;;;;;;;;5031926;28;20060;-74
2022/10/14 09:46:58;;;;;;;31.17;15.63;;;;;;;;;;5044516;28;20060;-74
2022/10/14 09:49:37;;;;;;;32.72;16.67;;;;;;;;;;5021254;28;20058;-75
2022/10/14 09:52:04;;;;;;;36.90;16.83;;;;;;;;;;5038769;28;20795;-74
2022/10/14 09:54:31;;;;;;;32.05;15.93;;;;;;;;;;5041583;28;20057;-74
2022/10/14 09:57:06;;;;;;;33.63;15.52;;;;;;;;;;5048691;28;20720;-74
2022/10/14 09:59:39;;;;;;;45.83;17.77;;;;;;;;;;5038793;28;20050;-74
2022/10/14 10:02:15;;;;;;;28.50;15.15;;;;;;;;;;5034110;28;20060;-66
2022/10/14 10:04:46;;;;;;;29.40;16.15;;;;;;;;;;5035480;28;20361;-73
2022/10/14 10:07:29;;;;;;;26.55;14.57;;;;;;;;;;5037714;28;20084;-64
2022/10/14 10:10:00;;;;;;;31.08;16.02;;;;;;;;;;5015073;28;20065;-75
2022/10/14 10:12:31;;;;;;;30.13;15.88;;;;;;;;;;5014653;28;20057;-74
2022/10/14 10:15:02;;;;;;;31.45;16.73;;;;;;;;;;5014444;28;20676;-74
2022/10/14 10:17:38;;;;;;;30.10;16.23;;;;;;;;;;5032322;28;20076;-74
2022/10/14 10:20:06;;;;;;;29.70;15.88;;;;;;;;;;5036537;28;20053;-74
2022/10/14 10:22:37;;;;;;;28.15;16.00;;;;;;;;;;5015655;28;20049;-74
2022/10/14 10:25:07;;;;;;;33.13;16.83;;;;;;;;;;5015044;28;20077;-74
2022/10/14 10:27:35;;;;;;;31.02;16.95;;;;;;;;;;5031731;28;20065;-75
2022/10/14 10:30:16;;;;;;;28.35;16.10;;;;;;;;;;5037622;28;20065;-75
2022/10/14 10:33:02;;;;;;;30.35;15.90;;;;;;;;;;5035637;28;20520;-75
2022/10/14 10:35:42;;;;;;;28.13;16.08;;;;;;;;;;5035625;28;20064;-76
2022/10/14 10:38:22;;;;;;;26.65;16.27;;;;;;;;;;5040239;28;20045;-77
2022/10/14 10:40:58;;;;;;;26.10;15.80;;;;;;;;;;5033248;28;20065;-77
2022/10/14 10:43:35;;;;;;;24.23;15.23;;;;;;;;;;5033804;28;20049;-77
2022/10/14 10:46:07;;;;;;;21.48;13.63;;;;;;;;;;5035250;28;20478;-77
2022/10/14 10:48:40;;;;;;;26.95;14.70;;;;;;;;;;5035747;28;20062;-76
2022/10/14 10:51:24;;;;;;;20.45;12.50;;;;;;;;;;5033043;28;20053;-75
2022/10/14 10:54:02;;;;;;;21.55;12.68;;;;;;;;;;5035229;28;20057;-75
2022/10/14 10:56:32;;;;;;;17.35;10.80;;;;;;;;;;5035426;28;20239;-74
2022/10/14 10:59:08;;;;;;;19.48;12.60;;;;;;;;;;5033985;28;20054;-76
2022/10/14 11:01:49;;;;;;;18.20;11.23;;;;;;;;;;5020020;28;20054;-76
2022/10/14 11:04:15;;;;;;;17.45;10.02;;;;;;;;;;5029499;28;20451;-75
2022/10/14 11:12:48;;;;;;;12.75;8.93;;;;;;;;;;5056244;28;20387;-75
2022/10/14 11:15:14;;;;;;;13.95;8.93;;;;;;;;;;5043449;28;20684;-75
2022/10/14 11:18:01;;;;;;;13.52;8.57;;;;;;;;;;5041933;28;20231;-76
2022/10/14 11:20:35;;;;;;;10.38;7.55;;;;;;;;;;5043497;28;20054;-76
2022/10/14 11:23:08;;;;;;;12.10;7.93;;;;;;;;;;5047101;28;20050;-75
2022/10/14 11:25:56;;;;;;;13.60;8.77;;;;;;;;;;5042338;28;20133;-75
2022/10/14 11:28:26;;;;;;;12.45;7.85;;;;;;;;;;5039971;28;20234;-75
2022/10/14 11:30:52;;;;;;;14.57;8.27;;;;;;;;;;5044230;28;20064;-75
2022/10/14 11:33:31;;;;;;;12.65;7.45;;;;;;;;;;5044044;28;20557;-76
2022/10/14 11:36:26;;;;;;;13.05;8.00;;;;;;;;;;5046468;28;20057;-75
2022/10/14 11:38:53;;;;;;;10.23;7.15;;;;;;;;;;5039180;28;20053;-75
2022/10/14 11:41:25;;;;;;;11.52;6.57;;;;;;;;;;5041093;28;20050;-76
2022/10/14 11:44:06;;;;;;;9.68;6.20;;;;;;;;;;5039323;28;20500;-69
2022/10/14 11:46:35;;;;;;;7.65;5.28;;;;;;;;;;5042415;28;20100;-78
2022/10/14 11:49:04;;;;;;;10.38;6.13;;;;;;;;;;5041581;28;20075;-75
2022/10/14 11:51:36;;;;;;;9.88;6.78;;;;;;;;;;5039821;28;20514;-74
2022/10/14 11:54:10;;;;;;;10.20;6.13;;;;;;;;;;5040002;28;20056;-77
2022/10/14 11:56:48;;;;;;;9.00;6.00;;;;;;;;;;5042107;28;20061;-76
2022/10/14 11:59:35;;;;;;;8.35;6.25;;;;;;;;;;5053611;28;20219;-76
2022/10/14 12:02:09;;;;;;;7.07;5.57;;;;;;;;;;5047752;28;20065;-75
2022/10/14 12:04:39;;;;;;;7.60;6.05;;;;;;;;;;5061399;28;20588;-76
2022/10/14 12:07:11;;;;;;;9.52;6.28;;;;;;;;;;5059841;28;20060;-76
2022/10/14 12:09:43;;;;;;;7.15;5.45;;;;;;;;;;5051588;28;20676;-76
2022/10/14 12:12:12;;;;;;;7.90;6.15;;;;;;;;;;5040950;28;20053;-77
2022/10/14 12:14:41;;;;;;;7.80;5.75;;;;;;;;;;5038041;28;20052;-78
2022/10/14 12:17:30;;;;;;;8.65;5.85;;;;;;;;;;5038800;28;20536;-78
2022/10/14 12:20:00;;;;;;;8.95;5.40;;;;;;;;;;5004622;28;20495;-79
2022/10/14 12:22:28;;;;;;;8.95;7.10;;;;;;;;;;5011295;28;20061;-76
2022/10/14 12:25:00;;;;;;;9.00;6.80;;;;;;;;;;4999636;28;20058;-78
2022/10/14 12:27:27;;;;;;;9.05;6.18;;;;;;;;;;5012668;28;20053;-76
2022/10/14 12:29:57;;;;;;;7.80;6.00;;;;;;;;;;5004168;28;20538;-77
2022/10/14 12:32:28;;;;;;;6.40;4.82;;;;;;;;;;5001299;28;20061;-78
2022/10/14 12:34:58;;;;;;;7.93;5.30;;;;;;;;;;5005515;28;21802;-65
2022/10/14 12:37:30;;;;;;;7.97;5.47;;;;;;;;;;5017052;28;20057;-76
2022/10/14 12:40:00;;;;;;;6.18;4.82;;;;;;;;;;5013142;28;20050;-75
2022/10/14 12:42:29;;;;;;;7.50;4.82;;;;;;;;;;4996773;28;20500;-74
2022/10/14 12:44:56;;;;;;;8.30;5.65;;;;;;;;;;4997686;28;20111;-74
2022/10/14 12:47:36;;;;;;;7.65;5.05;;;;;;;;;;5009378;28;20510;-75
2022/10/14 12:50:04;;;;;;;8.57;5.40;;;;;;;;;;5009311;28;20050;-74
2022/10/14 12:52:32;;;;;;;7.18;5.35;;;;;;;;;;5012823;28;20053;-75
2022/10/14 12:55:01;;;;;;;7.18;5.10;;;;;;;;;;5001969;28;20062;-74
2022/10/14 12:57:31;;;;;;;8.45;5.85;;;;;;;;;;5029293;28;20076;-75
2022/10/14 13:00:19;;;;;;;8.23;5.75;;;;;;;;;;5040970;28;20057;-76
2022/10/14 13:02:46;;;;;;;10.95;6.38;;;;;;;;;;5056084;28;20555;-75
2022/10/14 13:05:32;;;;;;;9.57;6.22;;;;;;;;;;5039147;28;20053;-74
2022/10/14 13:08:13;;;;;;;8.93;5.32;;;;;;;;;;5040814;28;20067;-74
2022/10/14 13:10:43;;;;;;;10.70;7.03;;;;;;;;;;5045208;28;20053;-75
2022/10/14 13:13:31;;;;;;;9.02;5.97;;;;;;;;;;5054383;28;20064;-75
2022/10/14 13:15:58;;;;;;;7.05;5.63;;;;;;;;;;5037849;28;20053;-75
2022/10/14 13:18:24;;;;;;;8.68;6.45;;;;;;;;;;5039271;28;20630;-76
2022/10/14 13:20:51;;;;;;;9.43;6.70;;;;;;;;;;5038805;28;20469;-75
2022/10/14 13:23:29;;;;;;;7.65;5.60;;;;;;;;;;5040404;28;20401;-75
2022/10/14 13:26:04;;;;;;;9.82;5.75;;;;;;;;;;5035093;28;21385;-75
2022/10/14 13:28:34;;;;;;;9.23;5.83;;;;;;;;;;5038196;28;20049;-75
2022/10/14 13:31:07;;;;;;;7.53;6.20;;;;;;;;;;5036644;28;20062;-75
2022/10/14 13:33:41;;;;;;;9.23;6.72;;;;;;;;;;5035692;28;20044;-76
2022/10/14 13:36:14;;;;;;;8.07;6.70;;;;;;;;;;5027761;28;20580;-75
2022/10/14 13:38:42;;;;;;;10.55;7.18;;;;;;;;;;5041771;28;20184;-74
2022/10/14 13:41:13;;;;;;;10.48;7.35;;;;;;;;;;5036012;28;20053;-76
2022/10/14 13:43:41;;;;;;;14.15;7.72;;;;;;;;;;5041516;28;20134;-76
2022/10/14 13:46:08;;;;;;;13.35;8.27;;;;;;;;;;5049832;28;20217;-76
2022/10/14 13:48:45;;;;;;;11.82;7.93;;;;;;;;;;5056337;28;20054;-75
2022/10/14 13:51:22;;;;;;;11.30;7.13;;;;;;;;;;5040498;28;20997;-75
2022/10/14 13:54:14;;;;;;;12.15;7.80;;;;;;;;;;5055394;28;20123;-75
2022/10/14 13:56:40;;;;;;;12.32;7.47;;;;;;;;;;5047358;28;20324;-75
2022/10/14 13:59:21;;;;;;;13.00;7.75;;;;;;;;;;5040933;28;20053;-75
2022/10/14 14:02:14;;;;;;;11.73;7.78;;;;;;;;;;5044128;28;20564;-74
2022/10/14 14:04:42;;;;;;;10.38;6.57;;;;;;;;;;5051557;28;20058;-74
2022/10/14 14:07:14;;;;;;;7.25;5.32;;;;;;;;;;5048459;28;20534;-74
2022/10/14 14:10:04;;;;;;;7.05;5.20;;;;;;;;;;5042164;28;20064;-76
2022/10/14 14:12:30;;;;;;;6.40;4.88;;;;;;;;;;5021385;28;20904;-76
2022/10/14 14:14:58;;;;;;;10.48;5.47;;;;;;;;;;5034027;28;20061;-76
2022/10/14 14:17:26;;;;;;;9.10;5.30;;;;;;;;;;5037185;28;20590;-75
2022/10/14 14:19:53;;;;;;;7.60;4.97;;;;;;;;;;5048625;28;20131;-75
2022/10/14 14:22:26;;;;;;;8.68;5.60;;;;;;;;;;5042434;28;20041;-74
2022/10/14 14:25:09;;;;;;;6.40;5.50;;;;;;;;;;5025713;28;20057;-74
2022/10/14 14:27:58;;;;;;;6.63;5.38;;;;;;;;;;5040187;28;20057;-75
2022/10/14 14:30:36;;;;;;;8.27;5.93;;;;;;;;;;5037266;28;20550;-75
2022/10/14 14:33:16;;;;;;;8.00;5.90;;;;;;;;;;5043252;28;20060;-76
2022/10/14 14:35:51;;;;;;;8.00;5.78;;;;;;;;;;5040101;28;20103;-75
2022/10/14 14:38:29;;;;;;;7.18;6.10;;;;;;;;;;5037489;28;20641;-75
2022/10/14 14:40:59;;;;;;;10.55;6.90;;;;;;;;;;5028277;28;20054;-75
2022/10/14 14:43:27;;;;;;;9.85;7.82;;;;;;;;;;5037078;28;20061;-75